Time;durP1;ratioP1;P1;durP2;ratioP2;P2;SDS_P1;SDS_P2;PMS_P1;PMS_P2;Temp;Humidity;BMP_temperature;BMP_pressure;BME280_temperature;BME280_humidity;BME280_pressure;Samples;Min_cycle;Max_cycle;Signal;HPM_P1;HPM_P2
2022/06/06 00:00:13;;;;;;;18.98;11.98;;;;;;;17.09;73.94;99887.81;5073959;28;20067;-56
2022/06/06 00:02:56;;;;;;;17.83;11.88;;;;;;;17.09;73.91;99881.69;5073268;28;20408;-56
2022/06/06 00:05:42;;;;;;;16.77;11.38;;;;;;;17.09;73.56;99876.44;5073620;28;20052;-56
2022/06/06 00:08:26;;;;;;;15.10;10.23;;;;;;;17.04;73.70;99869.56;5073642;28;20054;-56
2022/06/06 00:11:11;;;;;;;17.88;11.93;;;;;;;17.04;73.52;99864.31;5073760;28;20079;-57
2022/06/06 00:13:55;;;;;;;15.13;10.63;;;;;;;17.02;73.54;99850.38;5072812;28;20051;-56
2022/06/06 00:16:40;;;;;;;17.55;10.82;;;;;;;17.02;73.67;99859.97;5074003;28;20129;-55
2022/06/06 00:19:24;;;;;;;14.38;11.07;;;;;;;17.03;73.44;99862.59;5073250;28;20556;-59
2022/06/06 00:22:09;;;;;;;14.00;10.20;;;;;;;17.02;73.48;99852.09;5073740;28;20044;-55
2022/06/06 00:24:54;;;;;;;17.35;10.70;;;;;;;17.00;73.45;99848.66;5074200;28;20119;-54
2022/06/06 00:27:38;;;;;;;17.67;11.07;;;;;;;16.98;73.51;99851.28;5073682;28;20098;-55
2022/06/06 00:30:21;;;;;;;16.25;10.85;;;;;;;16.98;73.33;99850.41;5073897;28;20082;-55
2022/06/06 00:36:08;;;;;;;19.33;11.45;;;;;;;16.98;73.40;99853.91;5073818;28;20052;-56
2022/06/06 00:38:52;;;;;;;;;;;;;;;16.96;73.43;99845.22;5073407;28;20094;-56
2022/06/06 00:41:41;;;;;;;18.45;11.38;;;;;;;16.95;73.46;99855.72;5074095;28;19923;-56
2022/06/06 00:44:31;;;;;;;21.60;11.27;;;;;;;16.95;73.47;99856.56;5073921;28;20039;-57
2022/06/06 00:47:26;;;;;;;18.15;10.85;;;;;;;16.95;73.46;99858.34;5072096;28;20452;-56
2022/06/06 00:50:19;;;;;;;16.77;11.82;;;;;;;16.91;73.37;99860.06;5073716;28;20099;-56
2022/06/06 00:53:04;;;;;;;16.77;10.18;;;;;;;16.90;73.27;99864.44;5073397;28;20043;-56
2022/06/06 00:55:53;;;;;;;16.50;11.63;;;;;;;16.89;73.29;99859.25;5073288;28;20055;-56
2022/06/06 00:58:40;;;;;;;18.90;11.98;;;;;;;16.87;73.13;99858.41;5072864;28;20467;-56
2022/06/06 01:01:26;;;;;;;18.38;11.43;;;;;;;16.84;73.28;99864.53;5073269;28;20051;-56
2022/06/06 01:04:12;;;;;;;15.55;10.65;;;;;;;16.82;73.11;99868.06;5072674;28;20051;-56
2022/06/06 01:06:56;;;;;;;17.02;11.40;;;;;;;16.81;73.10;99861.09;5072890;28;20055;-56
2022/06/06 01:09:41;;;;;;;;;;;;;;;16.78;72.97;99854.16;5073109;28;20098;-57
2022/06/06 01:12:26;;;;;;;;;;;;;;;16.78;73.13;99850.66;5073005;28;19958;-56
2022/06/06 01:15:19;;;;;;;16.30;10.52;;;;;;;16.76;73.06;99853.28;5073375;28;19952;-56
2022/06/06 01:18:50;;;;;;;18.27;10.48;;;;;;;16.77;73.01;99854.16;5073554;28;20138;-56
2022/06/06 01:22:08;;;;;;;16.45;12.20;;;;;;;16.72;72.88;99849.84;5072684;28;20058;-56
2022/06/06 01:25:12;;;;;;;16.60;11.65;;;;;;;16.75;72.94;99862.03;5073274;28;20051;-56
2022/06/06 01:28:20;;;;;;;17.15;11.80;;;;;;;16.75;73.06;99857.66;5073010;28;20046;-56
2022/06/06 01:31:11;;;;;;;17.00;12.50;;;;;;;16.74;72.88;99874.22;5072205;28;20082;-56
2022/06/06 01:34:01;;;;;;;16.55;11.52;;;;;;;16.74;72.93;99874.22;5073068;28;20047;-56
2022/06/06 01:36:51;;;;;;;21.88;11.63;;;;;;;16.75;72.96;99869.88;5072436;28;20048;-57
2022/06/06 01:39:35;;;;;;;16.42;12.23;;;;;;;16.73;72.96;99882.13;5071987;28;20052;-56
2022/06/06 01:42:58;;;;;;;15.48;12.48;;;;;;;16.69;72.70;99868.22;5072267;28;20113;-56
2022/06/06 01:46:08;;;;;;;18.42;11.68;;;;;;;16.69;73.12;99880.41;5073027;28;20043;-56
2022/06/06 01:48:53;;;;;;;19.88;12.20;;;;;;;16.70;72.84;99871.69;5073116;28;20091;-56
2022/06/06 01:51:37;;;;;;;20.48;13.23;;;;;;;16.68;72.86;99863.84;5073062;28;20641;-56
2022/06/06 01:54:22;;;;;;;18.20;13.20;;;;;;;16.69;73.03;99854.25;5073090;28;20407;-56
2022/06/06 01:57:09;;;;;;;18.05;12.23;;;;;;;16.69;72.86;99849.00;5072674;28;20052;-56
2022/06/06 01:59:53;;;;;;;16.88;12.60;;;;;;;16.69;72.92;99846.41;5075418;28;20125;-56
2022/06/06 02:02:38;;;;;;;22.90;14.65;;;;;;;16.69;72.72;99843.78;5076813;28;20055;-56
2022/06/06 02:05:22;;;;;;;22.00;14.60;;;;;;;16.69;72.67;99842.03;5076406;28;20055;-56
2022/06/06 02:08:07;;;;;;;19.23;13.90;;;;;;;16.68;72.71;99842.94;5075904;28;20095;-57
2022/06/06 02:10:51;;;;;;;21.58;14.25;;;;;;;16.67;72.59;99843.81;5075552;28;20047;-56
2022/06/06 02:13:36;;;;;;;17.17;13.23;;;;;;;16.67;72.65;99828.09;5076037;28;20051;-56
2022/06/06 02:16:23;;;;;;;17.95;12.77;;;;;;;16.65;72.77;99823.78;5075235;28;20074;-56
2022/06/06 02:19:11;;;;;;;17.85;13.23;;;;;;;16.62;72.70;99816.81;5075512;28;20051;-56
2022/06/06 02:21:55;;;;;;;16.77;12.07;;;;;;;16.62;72.73;99818.59;5076232;28;20063;-56
2022/06/06 02:24:38;;;;;;;17.85;12.65;;;;;;;16.63;72.26;99828.19;5075152;28;20087;-56
2022/06/06 02:27:23;;;;;;;16.88;12.40;;;;;;;16.60;72.60;99818.59;5076028;28;20076;-56
2022/06/06 02:30:10;;;;;;;21.75;13.80;;;;;;;16.61;72.53;99815.09;5076191;28;20055;-56
2022/06/06 02:32:55;;;;;;;20.25;12.55;;;;;;;16.60;72.66;99821.22;5075692;28;20067;-56
2022/06/06 02:35:40;;;;;;;16.27;13.32;;;;;;;16.59;72.47;99815.13;5076589;28;20097;-56
2022/06/06 02:38:24;;;;;;;17.67;12.88;;;;;;;16.59;72.48;99816.84;5075415;28;20182;-56
2022/06/06 02:41:08;;;;;;;16.23;11.35;;;;;;;16.55;72.36;99817.81;5075554;28;20066;-56
2022/06/06 02:43:52;;;;;;;16.60;12.10;;;;;;;16.55;72.40;99816.03;5076185;28;20411;-56
2022/06/06 02:46:36;;;;;;;16.85;12.25;;;;;;;16.56;72.48;99817.78;5076041;28;20047;-56
2022/06/06 02:49:20;;;;;;;18.15;12.35;;;;;;;16.54;72.35;99824.78;5075648;28;20047;-56
2022/06/06 02:52:04;;;;;;;17.50;12.02;;;;;;;16.52;72.36;99821.31;5075830;28;20077;-56
2022/06/06 02:54:48;;;;;;;;;;;;;;;16.50;72.25;99823.09;5076315;28;20052;-56
2022/06/06 02:57:44;;;;;;;15.15;10.98;;;;;;;16.50;72.29;99828.31;5075510;28;19919;-56
2022/06/06 03:00:31;;;;;;;15.20;11.02;;;;;;;16.51;72.38;99839.63;5074583;28;20110;-56
2022/06/06 03:03:16;;;;;;;14.32;10.77;;;;;;;16.48;72.32;99837.94;5074874;28;20055;-56
2022/06/06 03:06:07;;;;;;;16.20;10.25;;;;;;;16.47;72.16;99835.31;5075523;28;20576;-56
2022/06/06 03:09:03;;;;;;;14.55;10.80;;;;;;;16.45;72.38;99843.19;5073789;28;20079;-56
2022/06/06 03:11:58;;;;;;;15.18;11.20;;;;;;;16.40;72.05;99843.25;5074620;28;20514;-56
2022/06/06 03:15:01;;;;;;;13.77;9.88;;;;;;;16.40;71.77;99843.25;5074274;28;20047;-56
2022/06/06 03:21:44;;;;;;;14.27;10.32;;;;;;;16.35;71.92;99854.66;5075156;28;20082;-55
2022/06/06 03:24:57;;;;;;;16.58;10.23;;;;;;;16.33;72.09;99838.13;5074124;28;20102;-56
2022/06/06 03:28:02;;;;;;;15.02;10.20;;;;;;;16.33;72.09;99838.13;5074869;28;20105;-55
2022/06/06 03:31:29;;;;;;;13.43;10.35;;;;;;;16.32;71.97;99839.84;5074558;28;20106;-55
2022/06/06 03:34:12;;;;;;;15.68;9.48;;;;;;;16.32;72.17;99836.38;5074792;28;20066;-55
2022/06/06 03:37:12;;;;;;;13.07;9.00;;;;;;;16.33;72.05;99841.56;5074606;28;20106;-55
2022/06/06 03:40:13;;;;;;;15.20;9.50;;;;;;;16.33;71.86;99840.72;5073782;28;20554;-55
2022/06/06 03:43:29;;;;;;;13.63;9.07;;;;;;;16.32;71.85;99832.00;5073884;28;20063;-56
2022/06/06 03:46:39;;;;;;;12.80;8.52;;;;;;;16.30;71.96;99844.22;5074112;28;20047;-55
2022/06/06 03:49:56;;;;;;;10.98;8.80;;;;;;;16.27;71.75;99846.91;5073958;28;20175;-54
2022/06/06 03:53:07;;;;;;;12.70;8.93;;;;;;;16.25;71.95;99838.19;5073828;28;20549;-57
2022/06/06 03:55:54;;;;;;;12.48;8.90;;;;;;;16.22;71.79;99846.91;5073571;28;20051;-56
2022/06/06 03:58:39;;;;;;;12.95;8.77;;;;;;;16.21;71.81;99847.78;5074284;28;20047;-55
2022/06/06 04:01:24;;;;;;;11.00;8.15;;;;;;;16.20;71.85;99853.06;5073401;28;20044;-55
2022/06/06 04:04:09;;;;;;;12.60;8.98;;;;;;;16.18;71.81;99849.59;5073578;28;20043;-55
2022/06/06 04:06:57;;;;;;;13.13;9.75;;;;;;;16.18;71.38;99852.19;5074576;28;20047;-55
2022/06/06 04:09:42;;;;;;;12.57;8.82;;;;;;;16.14;71.74;99844.38;5074029;28;20043;-54
2022/06/06 04:12:40;;;;;;;10.85;8.13;;;;;;;16.16;71.57;99840.88;5073402;28;20063;-56
2022/06/06 04:15:31;;;;;;;12.88;8.65;;;;;;;16.13;71.63;99840.03;5073517;28;20063;-55
2022/06/06 04:18:34;;;;;;;15.85;8.77;;;;;;;16.12;71.44;99837.44;5073237;28;20063;-55
2022/06/06 04:21:45;;;;;;;10.73;8.10;;;;;;;16.12;71.67;99838.28;5072789;28;20090;-56
2022/06/06 04:24:46;;;;;;;9.23;7.50;;;;;;;16.11;71.34;99846.16;5074087;28;20445;-55
2022/06/06 04:27:47;;;;;;;12.63;7.72;;;;;;;16.10;71.57;99855.78;5073216;28;20125;-55
2022/06/06 04:30:42;;;;;;;13.20;8.18;;;;;;;16.07;71.43;99849.69;5073205;28;20051;-55
2022/06/06 04:33:29;;;;;;;10.15;7.10;;;;;;;16.04;71.35;99847.13;5072791;28;20124;-55
2022/06/06 04:36:13;;;;;;;9.05;6.85;;;;;;;16.03;71.31;99845.38;5074092;28;20056;-55
2022/06/06 04:39:09;;;;;;;9.48;7.13;;;;;;;15.98;71.21;99851.53;5073822;28;20043;-55
2022/06/06 04:42:05;;;;;;;10.68;7.68;;;;;;;15.99;71.40;99849.75;5073260;28;20113;-55
2022/06/06 04:45:11;;;;;;;9.25;6.63;;;;;;;15.96;71.30;99847.19;5073009;28;20110;-55
2022/06/06 04:47:58;;;;;;;8.32;6.25;;;;;;;15.96;71.29;99847.19;5073202;28;20109;-55
2022/06/06 04:50:44;;;;;;;8.57;6.43;;;;;;;15.92;71.07;99835.88;5073845;28;20067;-55
2022/06/06 04:53:30;;;;;;;8.23;6.65;;;;;;;15.92;70.98;99838.50;5072569;28;20051;-55
2022/06/06 04:56:16;;;;;;;9.27;5.47;;;;;;;15.93;70.95;99842.00;5072711;28;20051;-54
2022/06/06 04:59:01;;;;;;;7.90;6.40;;;;;;;15.92;71.04;99861.16;5072273;28;20072;-55
2022/06/06 05:01:46;;;;;;;11.00;6.18;;;;;;;15.91;70.90;99857.66;5072209;28;20060;-55
2022/06/06 05:04:30;;;;;;;8.27;5.85;;;;;;;15.90;70.92;99863.78;5073450;28;20116;-55
2022/06/06 05:07:39;;;;;;;9.07;5.53;;;;;;;15.91;70.60;99862.03;5072813;28;20198;-54
2022/06/06 05:11:00;;;;;;;9.30;6.50;;;;;;;15.91;70.68;99859.44;5072974;28;20048;-55
2022/06/06 05:13:47;;;;;;;6.57;5.18;;;;;;;15.92;70.60;99864.63;5072273;28;20535;-55
2022/06/06 05:16:53;;;;;;;10.38;5.65;;;;;;;15.90;70.44;99869.00;5073623;28;20082;-55
2022/06/06 05:20:05;;;;;;;9.07;5.85;;;;;;;15.88;70.38;99869.91;5073421;28;20454;-54
2022/06/06 05:23:13;;;;;;;8.90;4.70;;;;;;;15.86;70.30;99863.81;5072409;28;20518;-55
2022/06/06 05:26:17;;;;;;;6.55;4.72;;;;;;;15.86;70.22;99861.22;5072621;28;20051;-56
2022/06/06 05:29:10;;;;;;;7.85;4.95;;;;;;;15.87;70.19;99860.31;5072008;28;20137;-56
2022/06/06 05:32:08;;;;;;;8.38;5.00;;;;;;;15.89;70.25;99864.66;5074091;28;20072;-56
2022/06/06 05:35:01;;;;;;;6.63;4.82;;;;;;;15.88;70.39;99854.22;5076395;28;20044;-56
2022/06/06 05:38:00;;;;;;;7.07;4.82;;;;;;;15.90;70.54;99857.69;5076329;28;20052;-56
2022/06/06 05:41:08;;;;;;;8.02;5.43;;;;;;;15.86;69.92;99851.63;5075943;28;20506;-55
2022/06/06 05:44:03;;;;;;;6.82;4.32;;;;;;;15.86;69.96;99862.09;5075308;28;20063;-56
2022/06/06 05:46:53;;;;;;;5.45;3.70;;;;;;;15.85;69.83;99865.56;5076970;28;20052;-56
2022/06/06 05:49:48;;;;;;;7.03;4.30;;;;;;;15.82;69.80;99868.19;5075784;28;20073;-58
2022/06/06 05:52:50;;;;;;;7.97;3.72;;;;;;;15.84;69.71;99864.66;5077065;28;20487;-56
2022/06/06 05:55:34;;;;;;;7.15;3.63;;;;;;;15.84;69.93;99866.44;5076075;28;20056;-56
2022/06/06 05:58:41;;;;;;;5.65;3.80;;;;;;;15.82;69.66;99866.41;5075345;28;20120;-56
2022/06/06 06:01:47;;;;;;;5.03;3.97;;;;;;;15.83;69.65;99862.06;5075358;28;20404;-57
2022/06/06 06:05:00;;;;;;;6.90;3.70;;;;;;;15.85;69.67;99870.81;5076172;28;20047;-55
2022/06/06 06:08:02;;;;;;;5.15;3.30;;;;;;;15.88;69.66;99867.28;5076526;28;20047;-56
2022/06/06 06:10:52;;;;;;;11.15;3.60;;;;;;;15.86;69.55;99877.75;5075309;28;20119;-56
2022/06/06 06:13:54;;;;;;;6.35;2.88;;;;;;;15.87;69.60;99881.22;5075507;28;20166;-56
2022/06/06 06:16:48;;;;;;;4.80;3.20;;;;;;;15.83;69.46;99882.97;5075850;28;20056;-56
2022/06/06 06:19:39;;;;;;;;;;;;;;;15.79;69.08;99869.09;5075784;28;20128;-56
2022/06/06 06:22:27;;;;;;;6.20;3.72;;;;;;;15.79;69.35;99883.88;5076241;28;19924;-56
2022/06/06 06:25:15;;;;;;;3.72;3.00;;;;;;;15.81;69.55;99882.13;5075085;28;20063;-57
2022/06/06 06:28:05;;;;;;;3.75;3.13;;;;;;;15.82;69.04;99897.78;5074987;28;20120;-55
2022/06/06 06:31:02;;;;;;;5.18;3.15;;;;;;;15.80;69.12;99894.31;5076283;28;20055;-56
2022/06/06 06:34:15;;;;;;;6.93;3.08;;;;;;;15.78;68.77;99893.47;5074937;28;20089;-57
2022/06/06 06:37:12;;;;;;;7.00;3.20;;;;;;;15.80;69.20;99893.44;5075151;28;20070;-56
2022/06/06 06:40:15;;;;;;;4.93;3.20;;;;;;;15.78;68.81;99893.47;5074731;28;20090;-56
2022/06/06 06:43:27;;;;;;;5.05;2.83;;;;;;;15.76;68.56;99894.34;5075763;28;20091;-56
2022/06/06 06:46:18;;;;;;;4.55;2.90;;;;;;;15.75;68.49;99896.09;5076221;28;20052;-56
2022/06/06 06:49:13;;;;;;;8.00;3.72;;;;;;;15.79;68.49;99904.78;5076021;28;20518;-56
2022/06/06 06:52:10;;;;;;;3.42;2.60;;;;;;;15.78;68.53;99900.44;5075967;28;20147;-56
2022/06/06 06:55:08;;;;;;;4.65;2.85;;;;;;;15.76;68.36;99910.91;5075607;28;20126;-56
2022/06/06 06:58:08;;;;;;;3.38;2.60;;;;;;;15.75;68.40;99901.34;5075192;28;20089;-56
2022/06/06 07:00:57;;;;;;;4.80;3.05;;;;;;;15.76;68.43;99899.56;5074166;28;20415;-57
2022/06/06 07:10:30;;;;;;;6.53;3.58;;;;;;;15.78;68.57;99879.53;5075434;28;20055;-56
2022/06/06 07:13:24;;;;;;;6.18;3.30;;;;;;;15.80;68.35;99883.84;5075201;28;20052;-57
2022/06/06 07:16:26;;;;;;;4.43;2.80;;;;;;;15.84;68.44;99889.94;5075102;28;20136;-56
2022/06/06 07:19:19;;;;;;;8.10;2.97;;;;;;;15.85;68.38;99902.16;5074214;28;20052;-56
2022/06/06 07:22:04;;;;;;;6.45;2.92;;;;;;;15.87;68.62;99904.75;5074321;28;20054;-57
2022/06/06 07:24:57;;;;;;;5.45;2.92;;;;;;;15.89;68.25;99910.84;5074148;28;20047;-54
2022/06/06 07:27:41;;;;;;;5.72;2.70;;;;;;;15.89;68.65;99903.00;5074215;28;20051;-54
2022/06/06 07:30:29;;;;;;;7.57;2.78;;;;;;;15.91;68.49;99909.09;5075158;28;20052;-55
2022/06/06 07:33:31;;;;;;;3.30;2.83;;;;;;;15.91;68.27;99912.53;5075224;28;20044;-56
2022/06/06 07:36:37;;;;;;;6.53;2.58;;;;;;;15.92;68.26;99916.03;5073750;28;20039;-55
2022/06/06 07:39:43;;;;;;;4.32;2.78;;;;;;;15.91;68.25;99902.09;5074621;28;20094;-55
2022/06/06 07:43:01;;;;;;;4.88;2.55;;;;;;;15.90;68.29;99895.13;5074073;28;20128;-55
2022/06/06 07:45:53;;;;;;;5.97;2.92;;;;;;;15.91;68.12;99906.47;5073326;28;20055;-55
2022/06/06 07:49:01;;;;;;;3.22;2.75;;;;;;;15.90;68.26;99908.19;5074025;28;20106;-55
2022/06/06 07:51:58;;;;;;;5.78;3.63;;;;;;;15.91;68.20;99914.31;5074499;28;20055;-56
2022/06/06 07:55:17;;;;;;;8.77;2.53;;;;;;;15.91;67.90;99909.09;5074011;28;20098;-56
2022/06/06 07:58:18;;;;;;;4.22;2.60;;;;;;;15.88;67.91;99896.91;5070127;28;20047;-55
2022/06/06 08:01:56;;;;;;;4.38;2.55;;;;;;;15.89;67.94;99906.47;5074048;28;20090;-55
2022/06/06 08:05:14;;;;;;;5.97;2.63;;;;;;;15.91;67.92;99896.00;4998554;28;20085;-56
2022/06/06 08:08:01;;;;;;;3.40;2.60;;;;;;;15.92;68.20;99884.69;5001347;28;20096;-55
2022/06/06 08:10:47;;;;;;;3.95;2.20;;;;;;;15.92;67.89;99896.00;5073595;28;20079;-56
2022/06/06 08:14:06;;;;;;;2.72;2.25;;;;;;;15.94;67.74;99885.53;5073610;28;20158;-56
2022/06/06 08:17:02;;;;;;;3.53;2.65;;;;;;;15.94;67.72;99893.38;5073197;28;20094;-55
2022/06/06 08:20:02;;;;;;;3.92;2.55;;;;;;;15.93;67.80;99889.03;5072963;28;20050;-56
2022/06/06 08:22:47;;;;;;;4.38;2.05;;;;;;;15.96;67.74;99889.88;5072948;28;20086;-56
2022/06/06 08:25:36;;;;;;;6.05;2.63;;;;;;;15.97;67.88;99886.38;5072916;28;20079;-56
2022/06/06 08:28:21;;;;;;;8.18;2.38;;;;;;;15.99;67.82;99907.25;5074283;28;20055;-56
2022/06/06 08:31:06;;;;;;;3.30;2.10;;;;;;;16.00;67.67;99893.31;5072896;28;20065;-56
2022/06/06 08:33:50;;;;;;;9.73;3.17;;;;;;;16.00;67.76;99889.84;5073641;28;20557;-56
2022/06/06 08:37:09;;;;;;;6.68;2.65;;;;;;;16.00;67.64;99893.31;5073365;28;20052;-56
2022/06/06 08:40:19;;;;;;;3.65;2.33;;;;;;;16.01;67.72;99895.03;5072838;28;20553;-56
2022/06/06 08:43:18;;;;;;;3.63;2.20;;;;;;;16.01;67.61;99902.03;5073516;28;20529;-55
2022/06/06 08:46:29;;;;;;;3.17;2.35;;;;;;;16.02;67.65;99891.56;5073222;28;20055;-56
2022/06/06 08:53:04;;;;;;;2.55;2.10;;;;;;;16.07;67.68;99900.22;5073741;28;20063;-55
2022/06/06 08:56:09;;;;;;;3.08;2.10;;;;;;;16.08;67.74;99896.75;5073547;28;20051;-55
2022/06/06 08:59:01;;;;;;;4.00;2.40;;;;;;;16.09;67.58;99893.25;5073322;28;20056;-54
2022/06/06 09:02:13;;;;;;;4.97;2.47;;;;;;;16.12;67.61;99890.56;5073360;28;20106;-55
2022/06/06 09:05:26;;;;;;;2.67;2.33;;;;;;;16.14;67.51;99890.59;5073246;28;20166;-55
2022/06/06 09:08:25;;;;;;;5.88;2.95;;;;;;;16.14;67.57;99896.66;5073228;28;20056;-56
2022/06/06 09:11:43;;;;;;;2.28;2.08;;;;;;;16.14;67.23;99875.75;5072945;28;20059;-57
2022/06/06 09:14:49;;;;;;;6.03;2.75;;;;;;;16.17;67.38;99874.00;5073169;28;20048;-56
2022/06/06 09:17:56;;;;;;;3.85;2.35;;;;;;;16.20;67.45;99879.19;5073323;28;20075;-57
2022/06/06 09:20:50;;;;;;;4.60;2.72;;;;;;;16.23;67.44;99877.41;5071989;28;20075;-56
2022/06/06 09:24:12;;;;;;;5.53;2.40;;;;;;;16.26;67.22;99877.38;5072291;28;20122;-56
2022/06/06 09:27:34;;;;;;;3.13;2.47;;;;;;;16.30;67.18;99878.22;5073140;28;20078;-56
2022/06/06 09:30:34;;;;;;;5.75;2.47;;;;;;;16.33;67.08;99875.56;5073286;28;20521;-56
2022/06/06 09:34:03;;;;;;;6.60;2.83;;;;;;;16.34;67.13;99877.31;5072235;28;20184;-56
2022/06/06 09:37:18;;;;;;;3.40;2.30;;;;;;;16.38;67.31;99870.28;5072124;28;20140;-56
2022/06/06 09:40:32;;;;;;;3.60;2.55;;;;;;;16.37;67.16;99868.56;5073094;28;20094;-56
2022/06/06 09:44:12;;;;;;;3.25;2.47;;;;;;;16.38;67.20;99862.44;5072423;28;20056;-56
2022/06/06 09:47:20;;;;;;;4.35;2.17;;;;;;;16.40;67.31;99871.16;5071445;28;20125;-56
2022/06/06 09:50:13;;;;;;;5.28;2.85;;;;;;;16.48;67.28;99871.94;5073234;28;20145;-56
2022/06/06 09:53:30;;;;;;;3.80;2.22;;;;;;;16.50;67.07;99864.06;5072001;28;20052;-56
2022/06/06 09:59:45;;;;;;;10.10;2.83;;;;;;;16.54;67.05;99857.91;5072706;28;20039;-56
2022/06/06 10:02:45;;;;;;;5.25;2.22;;;;;;;16.57;66.78;99861.38;5071756;28;20056;-56
2022/06/06 10:05:58;;;;;;;3.95;2.35;;;;;;;16.59;66.77;99856.97;5072436;28;20561;-56
2022/06/06 10:08:46;;;;;;;3.03;2.35;;;;;;;16.59;66.76;99850.88;5071864;28;20052;-56
2022/06/06 10:11:48;;;;;;;6.03;2.15;;;;;;;16.61;66.74;99856.09;5072577;28;20079;-57
2022/06/06 10:14:49;;;;;;;3.85;2.13;;;;;;;16.60;66.63;99865.69;5072105;28;20047;-56
2022/06/06 10:17:39;;;;;;;4.07;2.35;;;;;;;16.60;66.46;99855.22;5072335;28;20059;-57
2022/06/06 10:20:47;;;;;;;7.53;2.00;;;;;;;16.59;66.72;99858.72;5075718;28;20039;-56
2022/06/06 10:23:49;;;;;;;2.78;1.88;;;;;;;16.59;66.68;99853.47;5075693;28;20055;-57
2022/06/06 10:26:48;;;;;;;3.35;2.05;;;;;;;16.59;66.53;99846.53;5075484;28;20067;-56
2022/06/06 10:33:20;;;;;;;2.97;2.20;;;;;;;16.62;66.52;99853.44;5075924;28;20163;-56
2022/06/06 10:36:26;;;;;;;3.70;2.03;;;;;;;16.65;66.59;99852.56;5076403;28;20102;-57
2022/06/06 10:39:30;;;;;;;7.97;2.05;;;;;;;16.65;66.44;99860.41;5075020;28;20101;-56
2022/06/06 10:42:39;;;;;;;2.55;1.52;;;;;;;16.66;66.49;99859.53;5074849;28;20097;-56
2022/06/06 10:45:38;;;;;;;2.83;1.92;;;;;;;16.65;66.52;99863.03;5076173;28;20039;-56
2022/06/06 10:48:34;;;;;;;4.82;2.40;;;;;;;16.64;66.48;99862.16;5074861;28;20047;-56
2022/06/06 10:51:37;;;;;;;2.40;2.00;;;;;;;16.65;66.28;99860.41;5075097;28;20051;-56
2022/06/06 10:54:33;;;;;;;3.67;2.00;;;;;;;16.65;66.17;99856.03;5074839;28;20052;-56
2022/06/06 10:57:41;;;;;;;4.13;1.85;;;;;;;16.64;66.04;99856.06;5075295;28;20051;-56
2022/06/06 11:00:44;;;;;;;2.67;1.70;;;;;;;16.61;66.26;99858.72;5075536;28;20043;-56
2022/06/06 11:03:43;;;;;;;3.83;2.03;;;;;;;16.62;66.02;99863.06;5075712;28;20145;-56
2022/06/06 11:06:43;;;;;;;3.58;1.98;;;;;;;16.59;65.79;99861.34;5074547;28;20051;-56
2022/06/06 11:09:39;;;;;;;3.03;2.00;;;;;;;16.57;65.88;99855.28;5074812;28;20102;-56
2022/06/06 11:12:52;;;;;;;2.60;1.83;;;;;;;16.53;65.83;99850.97;5074662;28;20561;-56
2022/06/06 11:15:54;;;;;;;5.50;1.98;;;;;;;16.52;65.81;99850.06;5074256;28;20098;-56
2022/06/06 11:19:24;;;;;;;4.10;1.90;;;;;;;16.50;65.80;99848.38;5075392;28;20048;-56
2022/06/06 11:22:26;;;;;;;4.45;2.03;;;;;;;16.48;65.88;99848.41;5075026;28;20571;-57
2022/06/06 11:25:16;;;;;;;2.72;1.70;;;;;;;16.51;65.70;99839.63;5074404;28;20451;-56
2022/06/06 11:28:31;;;;;;;3.85;1.70;;;;;;;16.50;65.33;99844.03;5075094;28;20071;-56
2022/06/06 11:31:23;;;;;;;;;;;;;;;16.48;65.48;99840.56;5074936;28;20055;-56
2022/06/06 11:34:25;;;;;;;2.30;1.98;;;;;;;16.49;65.43;99842.28;5073824;28;19923;-56
2022/06/06 11:37:43;;;;;;;3.83;1.73;;;;;;;16.50;65.41;99841.41;5074012;28;20569;-57
2022/06/06 11:40:48;;;;;;;2.20;1.63;;;;;;;16.53;65.69;99843.13;5074533;28;20043;-56
2022/06/06 11:43:41;;;;;;;2.00;1.80;;;;;;;16.58;65.68;99842.16;5074713;28;20051;-56
2022/06/06 11:46:47;;;;;;;4.57;2.25;;;;;;;16.62;65.64;99848.22;5073701;28;20526;-56
2022/06/06 11:49:47;;;;;;;2.80;1.60;;;;;;;16.65;65.65;99834.25;5074227;28;20054;-56
2022/06/06 11:52:55;;;;;;;2.75;1.88;;;;;;;16.68;65.56;99849.88;5073730;28;20051;-56
2022/06/06 11:55:51;;;;;;;4.25;1.95;;;;;;;16.70;65.61;99840.28;5074549;28;20056;-57
2022/06/06 11:58:45;;;;;;;2.63;1.92;;;;;;;16.73;65.42;99835.00;5073891;28;20056;-56
2022/06/06 12:01:54;;;;;;;2.97;1.98;;;;;;;16.74;65.28;99848.06;5072911;28;20066;-56
2022/06/06 12:04:40;;;;;;;2.60;1.65;;;;;;;16.74;65.13;99845.44;5074439;28;20624;-56
2022/06/06 12:07:46;;;;;;;3.90;1.60;;;;;;;16.74;65.20;99839.38;5073412;28;20048;-56
2022/06/06 12:10:44;;;;;;;9.35;2.30;;;;;;;16.72;64.94;99839.41;5074099;28;20469;-56
2022/06/06 12:13:46;;;;;;;6.20;2.13;;;;;;;16.70;65.02;99835.03;5073461;28;20422;-56
2022/06/06 12:17:01;;;;;;;2.67;1.77;;;;;;;16.71;65.13;99835.03;5072928;28;20048;-57
2022/06/06 12:19:51;;;;;;;4.15;1.92;;;;;;;16.73;65.04;99841.13;5073623;28;20447;-56
2022/06/06 12:22:59;;;;;;;4.25;2.00;;;;;;;16.76;65.04;99832.38;5074100;28;20051;-56
2022/06/06 12:26:02;;;;;;;5.75;2.22;;;;;;;16.77;64.91;99831.47;5072947;28;20412;-56
2022/06/06 12:29:01;;;;;;;3.03;2.10;;;;;;;16.80;64.80;99822.72;5074268;28;20070;-56
2022/06/06 12:32:21;;;;;;;2.42;1.73;;;;;;;16.79;64.86;99828.81;5073936;28;20051;-57
2022/06/06 12:35:14;;;;;;;2.67;2.05;;;;;;;16.77;64.87;99836.72;5073657;28;20059;-55
2022/06/06 12:38:04;;;;;;;6.18;2.10;;;;;;;16.77;64.76;99827.97;5073350;28;20060;-55
2022/06/06 12:41:11;;;;;;;3.22;1.67;;;;;;;16.77;64.69;99841.06;5073652;28;20079;-55
2022/06/06 12:43:59;;;;;;;4.85;1.98;;;;;;;16.77;64.61;99831.47;5073273;28;20189;-55
2022/06/06 12:46:55;;;;;;;3.80;2.40;;;;;;;16.78;64.60;99833.22;5072603;28;20162;-57
2022/06/06 12:50:00;;;;;;;3.20;1.60;;;;;;;16.78;64.44;99827.09;5073932;28;20101;-56
2022/06/06 12:52:44;;;;;;;3.38;1.60;;;;;;;16.78;64.48;99827.09;5072584;28;20044;-55
2022/06/06 12:59:20;;;;;;;1.65;1.38;;;;;;;16.78;64.10;99827.97;5073099;28;20066;-56
2022/06/06 13:02:22;;;;;;;5.53;2.17;;;;;;;16.78;64.06;99821.84;5051556;28;20338;-56
2022/06/06 13:05:12;;;;;;;1.95;1.60;;;;;;;16.80;64.24;99820.97;5053609;28;20396;-55
2022/06/06 13:08:31;;;;;;;1.98;1.38;;;;;;;16.81;63.98;99822.72;5066763;28;20052;-55
2022/06/06 13:11:37;;;;;;;3.10;1.42;;;;;;;16.80;64.17;99823.59;5009842;28;20114;-55
2022/06/06 13:14:23;;;;;;;2.90;1.70;;;;;;;16.80;63.97;99820.09;5051962;28;20060;-55
2022/06/06 13:17:32;;;;;;;3.42;1.60;;;;;;;16.80;63.96;99830.56;5066763;28;20060;-55
2022/06/06 13:20:32;;;;;;;3.10;1.50;;;;;;;16.79;63.71;99827.09;5052990;28;20416;-55
2022/06/06 13:23:28;;;;;;;2.67;1.80;;;;;;;16.80;63.95;99825.31;5066262;28;20060;-56
2022/06/06 13:26:24;;;;;;;5.88;1.88;;;;;;;16.78;63.90;99827.09;5066316;28;20052;-55
2022/06/06 13:29:27;;;;;;;2.45;1.40;;;;;;;16.78;63.59;99827.97;5066678;28;20052;-55
2022/06/06 13:32:27;;;;;;;4.10;1.60;;;;;;;16.75;63.67;99839.31;5052380;28;20454;-55
2022/06/06 13:35:19;;;;;;;5.10;2.00;;;;;;;16.77;63.95;99846.28;5052875;28;20048;-57
2022/06/06 13:38:29;;;;;;;3.13;1.48;;;;;;;16.77;63.85;99838.44;5052485;28;20055;-57
2022/06/06 13:41:31;;;;;;;2.33;1.67;;;;;;;16.77;63.66;99838.44;5066273;28;20044;-56
2022/06/06 13:44:29;;;;;;;2.75;1.30;;;;;;;16.77;63.80;99847.19;5053405;28;20044;-57
2022/06/06 13:47:22;;;;;;;3.33;1.48;;;;;;;16.77;63.69;99836.72;5066416;28;20412;-57
2022/06/06 13:50:21;;;;;;;4.10;1.77;;;;;;;16.79;63.47;99840.19;5066244;28;20514;-56
2022/06/06 13:53:21;;;;;;;3.88;1.80;;;;;;;16.79;63.69;99834.94;5053834;28;20051;-55
2022/06/06 13:56:26;;;;;;;1.65;1.50;;;;;;;16.83;63.67;99838.38;5056880;28;20513;-55
2022/06/06 13:59:34;;;;;;;1.90;1.35;;;;;;;16.85;63.88;99847.09;5069783;28;20103;-55
2022/06/06 14:02:48;;;;;;;4.35;1.50;;;;;;;16.86;63.54;99830.50;5055490;28;20067;-56
2022/06/06 14:05:44;;;;;;;1.60;1.50;;;;;;;16.89;63.60;99840.94;5056808;28;20052;-56
2022/06/06 14:08:58;;;;;;;1.45;1.30;;;;;;;16.90;63.52;99835.66;5069862;28;20124;-56
2022/06/06 14:11:54;;;;;;;2.78;1.80;;;;;;;16.90;63.55;99847.88;5052927;28;20051;-55
2022/06/06 14:14:39;;;;;;;7.60;1.88;;;;;;;16.90;63.38;99833.03;5056405;28;20080;-55
2022/06/06 14:17:29;;;;;;;1.75;1.30;;;;;;;16.89;63.52;99844.41;5055497;28;20043;-55